createdAt,value
2022-11-23T00:00:49.261Z,6
2022-11-23T00:01:57.646Z,6
2022-11-23T00:03:05.931Z,6
2022-11-23T00:04:14.473Z,6
2022-11-23T00:05:22.808Z,6
2022-11-23T00:06:31.274Z,6
2022-11-23T00:07:39.747Z,6.3
2022-11-23T00:08:48.011Z,6.3
2022-11-23T00:09:56.350Z,6.3
2022-11-23T00:11:04.878Z,5.8
2022-11-23T00:12:13.212Z,5.8
2022-11-23T00:13:21.542Z,5.8
2022-11-23T00:14:30.073Z,5.9
2022-11-23T00:15:38.400Z,5.9
2022-11-23T00:16:46.732Z,5.9
2022-11-23T00:17:55.276Z,6.1
2022-11-23T00:19:03.605Z,6.1
2022-11-23T00:20:11.931Z,6.1
2022-11-23T00:21:20.499Z,6.2
2022-11-23T00:22:28.874Z,6.2
2022-11-23T00:23:37.197Z,6.2
2022-11-23T00:24:45.790Z,5.9
2022-11-23T00:25:54.089Z,5.9
2022-11-23T00:27:02.458Z,5.9
2022-11-23T00:28:11.020Z,5.9
2022-11-23T00:29:19.337Z,5.9
2022-11-23T00:30:27.712Z,5.9
2022-11-23T00:31:36.236Z,5.9
2022-11-23T00:32:44.567Z,5.9
2022-11-23T00:33:52.911Z,5.9
2022-11-23T00:35:01.451Z,5.6
2022-11-23T00:36:09.792Z,5.6
2022-11-23T00:37:18.132Z,5.6
2022-11-23T00:38:26.702Z,5.8
2022-11-23T00:39:35.012Z,5.8
2022-11-23T00:40:43.353Z,5.8
2022-11-23T00:41:51.907Z,6.3
2022-11-23T00:43:00.236Z,6.3
2022-11-23T00:44:08.593Z,6.3
2022-11-23T00:45:17.158Z,6.1
2022-11-23T00:46:25.496Z,6.1
2022-11-23T00:47:33.826Z,6.1
2022-11-23T00:48:42.394Z,5.9
2022-11-23T00:49:50.746Z,5.9
2022-11-23T00:50:59.071Z,5.9
2022-11-23T00:52:07.618Z,6.5
2022-11-23T00:53:15.963Z,6.5
2022-11-23T00:54:24.333Z,6.5
2022-11-23T00:55:32.859Z,6.4
2022-11-23T00:56:41.188Z,6.4
2022-11-23T00:57:49.535Z,6.4
2022-11-23T00:58:58.085Z,6
2022-11-23T01:00:06.408Z,6
2022-11-23T01:01:14.833Z,6
2022-11-23T01:02:23.317Z,5.8
2022-11-23T01:03:31.643Z,5.8
2022-11-23T01:04:39.993Z,5.8
2022-11-23T01:05:48.542Z,6.3
2022-11-23T01:06:56.883Z,6.3
2022-11-23T01:08:05.228Z,6.3
2022-11-23T01:09:13.762Z,5.9
2022-11-23T01:10:22.136Z,5.9
2022-11-23T01:11:30.448Z,5.9
2022-11-23T01:12:39.000Z,6.1
2022-11-23T01:13:47.351Z,6.1
2022-11-23T01:14:55.660Z,6.1
2022-11-23T01:16:04.222Z,6.6
2022-11-23T01:17:12.556Z,6.6
2022-11-23T01:18:20.916Z,6.6
2022-11-23T01:19:29.752Z,6.5
2022-11-23T01:20:37.789Z,6.5
2022-11-23T01:21:46.162Z,6.5
2022-11-23T01:22:54.672Z,6.6
2022-11-23T01:24:03.020Z,6.6
2022-11-23T01:25:11.353Z,6.6
2022-11-23T01:26:19.915Z,6.7
2022-11-23T01:27:28.259Z,6.7
2022-11-23T01:28:36.601Z,6.7
2022-11-23T01:29:45.139Z,6.8
2022-11-23T01:30:53.470Z,6.8
2022-11-23T01:32:01.818Z,6.8
2022-11-23T01:33:10.358Z,6.7
2022-11-23T01:34:18.686Z,6.7
2022-11-23T01:35:27.043Z,6.7
2022-11-23T01:36:35.592Z,6.7
2022-11-23T01:37:43.949Z,6.7
2022-11-23T01:38:52.283Z,6.7
2022-11-23T01:40:00.849Z,6.5
2022-11-23T01:41:09.176Z,6.5
2022-11-23T01:42:18.083Z,6.5
2022-11-23T01:43:26.064Z,6.3
2022-11-23T01:44:34.400Z,6.3
2022-11-23T01:45:42.733Z,6.3
2022-11-23T01:46:51.302Z,7.2
2022-11-23T01:47:59.631Z,7.2
2022-11-23T01:49:07.997Z,7.2
2022-11-23T01:50:16.546Z,6.4
2022-11-23T01:51:24.879Z,6.4
2022-11-23T01:52:33.233Z,6.4
2022-11-23T01:53:41.778Z,6.2
2022-11-23T01:54:50.117Z,6.2
2022-11-23T01:55:58.483Z,6.2
2022-11-23T01:57:07.020Z,6.3
2022-11-23T01:58:15.424Z,6.3
2022-11-23T01:59:23.719Z,6.3
2022-11-23T02:00:32.326Z,6.4
2022-11-23T02:01:40.668Z,6.4
2022-11-23T02:02:48.993Z,6.4
2022-11-23T02:03:57.537Z,6.4
2022-11-23T02:05:05.875Z,6.4
2022-11-23T02:06:14.236Z,6.4
2022-11-23T02:07:22.798Z,6.3
2022-11-23T02:08:31.139Z,6.3
2022-11-23T02:09:39.452Z,6.3
2022-11-23T02:10:47.998Z,5.6
2022-11-23T02:11:56.337Z,5.6
2022-11-23T02:13:04.676Z,5.6
2022-11-23T02:14:13.233Z,6
2022-11-23T02:15:21.549Z,6
2022-11-23T02:16:29.881Z,6
2022-11-23T02:17:38.418Z,6.6
2022-11-23T02:18:46.790Z,6.6
2022-11-23T02:19:55.133Z,6.6
2022-11-23T02:21:03.671Z,6.7
2022-11-23T02:22:12.026Z,6.7
2022-11-23T02:23:20.357Z,6.7
2022-11-23T02:24:28.927Z,5.9
2022-11-23T02:25:37.264Z,5.9
2022-11-23T02:26:45.631Z,5.9
2022-11-23T02:27:54.197Z,6.5
2022-11-23T02:29:02.521Z,6.5
2022-11-23T02:30:10.873Z,6.5
2022-11-23T02:31:19.398Z,6.6
2022-11-23T02:32:27.732Z,6.6
2022-11-23T02:33:36.069Z,6.6
2022-11-23T02:34:44.603Z,6.3
2022-11-23T02:35:52.948Z,6.3
2022-11-23T02:37:01.297Z,6.3
2022-11-23T02:38:09.836Z,6.2
2022-11-23T02:39:18.186Z,6.2
2022-11-23T02:40:26.511Z,6.2
2022-11-23T02:41:35.054Z,6.1
2022-11-23T02:42:43.415Z,6.1
2022-11-23T02:43:51.740Z,6.1
2022-11-23T02:45:00.303Z,6
2022-11-23T02:46:08.658Z,6
2022-11-23T02:47:17.007Z,6
2022-11-23T02:48:25.513Z,6
2022-11-23T02:49:34.092Z,6
2022-11-23T02:50:42.204Z,6
2022-11-23T02:51:50.787Z,6.4
2022-11-23T02:52:59.087Z,6.4
2022-11-23T02:54:07.420Z,6.4
2022-11-23T02:55:15.990Z,5.1
2022-11-23T02:56:24.366Z,5.1
2022-11-23T02:57:32.705Z,5.1
2022-11-23T02:58:41.269Z,6
2022-11-23T02:59:49.589Z,6
2022-11-23T03:00:58.087Z,6
2022-11-23T03:02:06.526Z,5.9
2022-11-23T03:03:14.832Z,5.9
2022-11-23T03:04:27.752Z,5.9
2022-11-23T03:05:31.741Z,6.5
2022-11-23T03:06:40.071Z,6.5
2022-11-23T03:07:48.491Z,6.5
2022-11-23T03:08:56.946Z,6.1
2022-11-23T03:10:05.290Z,6.1
2022-11-23T03:11:13.639Z,6.1
2022-11-23T03:12:22.224Z,6.3
2022-11-23T03:13:30.539Z,6.3
2022-11-23T03:14:38.890Z,6.3
2022-11-23T03:15:47.433Z,6
2022-11-23T03:16:55.792Z,6
2022-11-23T03:18:04.144Z,6
2022-11-23T03:19:12.662Z,6.2
2022-11-23T03:20:21.035Z,6.2
2022-11-23T03:21:29.409Z,6.2
2022-11-23T03:22:37.943Z,6.5
2022-11-23T03:23:46.303Z,6.5
2022-11-23T03:24:54.613Z,6.5
2022-11-23T03:26:03.975Z,6.8
2022-11-23T03:27:11.520Z,6.8
2022-11-23T03:28:19.848Z,6.8
2022-11-23T03:29:28.493Z,6.2
2022-11-23T03:30:36.748Z,6.2
2022-11-23T03:31:45.094Z,6.2
2022-11-23T03:32:53.646Z,6.6
2022-11-23T03:34:01.996Z,6.6
2022-11-23T03:35:10.340Z,6.6
2022-11-23T03:36:18.880Z,7
2022-11-23T03:37:27.232Z,7
2022-11-23T03:38:35.587Z,7
2022-11-23T03:39:47.270Z,6.8
2022-11-23T03:40:52.465Z,6.8
2022-11-23T03:42:00.805Z,6.8
2022-11-23T03:43:09.359Z,6.2
2022-11-23T03:44:17.703Z,6.2
2022-11-23T03:45:26.056Z,6.2
2022-11-23T03:46:34.608Z,6
2022-11-23T03:47:42.964Z,6
2022-11-23T03:48:51.288Z,6
2022-11-23T03:49:59.903Z,6.3
2022-11-23T03:51:08.180Z,6.3
2022-11-23T03:52:16.524Z,6.3
2022-11-23T03:53:25.083Z,5.9
2022-11-23T03:54:33.412Z,5.9
2022-11-23T03:55:41.777Z,5.9
2022-11-23T03:56:50.347Z,5.1
2022-11-23T03:57:58.684Z,5.1
2022-11-23T03:59:07.033Z,5.1
2022-11-23T04:00:15.574Z,6.1
2022-11-23T04:01:24.005Z,6.1
2022-11-23T04:02:32.277Z,6.1
2022-11-23T04:03:40.820Z,6.2
2022-11-23T04:04:49.194Z,6.2
2022-11-23T04:05:57.624Z,6.2
2022-11-23T04:07:06.080Z,6.1
2022-11-23T04:08:14.416Z,6.1
2022-11-23T04:09:22.747Z,6.1
2022-11-23T04:10:31.334Z,5.8
2022-11-23T04:11:39.648Z,5.8
2022-11-23T04:12:47.995Z,5.8
2022-11-23T04:13:56.527Z,5.7
2022-11-23T04:15:04.867Z,5.7
2022-11-23T04:16:13.197Z,5.7
2022-11-23T04:17:21.771Z,5.5
2022-11-23T04:18:30.114Z,5.5
2022-11-23T04:19:38.469Z,5.5
2022-11-23T04:20:47.025Z,5.1
2022-11-23T04:21:55.389Z,5.1
2022-11-23T04:23:03.703Z,5.1
2022-11-23T04:24:12.254Z,5.8
2022-11-23T04:25:20.607Z,5.8
2022-11-23T04:26:28.948Z,5.8
2022-11-23T04:27:37.497Z,5.4
2022-11-23T04:28:45.835Z,5.4
2022-11-23T04:29:54.168Z,5.4
2022-11-23T04:31:02.716Z,5.4
2022-11-23T04:32:11.081Z,5.4
2022-11-23T04:33:19.418Z,5.4
2022-11-23T04:34:27.953Z,5.3
2022-11-23T04:35:36.299Z,5.3
2022-11-23T04:36:44.655Z,5.3
2022-11-23T04:37:53.218Z,5.5
2022-11-23T04:39:01.565Z,5.5
2022-11-23T04:40:09.909Z,5.5
2022-11-23T04:41:18.444Z,5.6
2022-11-23T04:42:26.808Z,5.6
2022-11-23T04:43:35.145Z,5.6
2022-11-23T04:44:43.711Z,5.7
2022-11-23T04:45:52.033Z,5.7
2022-11-23T04:47:00.403Z,5.7
2022-11-23T04:48:08.937Z,5.3
2022-11-23T04:49:17.279Z,5.3
2022-11-23T04:50:25.609Z,5.3
2022-11-23T04:51:34.174Z,5.6
2022-11-23T04:52:42.511Z,5.6
2022-11-23T04:53:50.903Z,5.6
2022-11-23T04:54:59.449Z,5.7
2022-11-23T04:56:07.782Z,5.7
2022-11-23T04:57:16.126Z,5.7
2022-11-23T04:58:25.402Z,6.2
2022-11-23T04:59:33.189Z,6.2
2022-11-23T05:00:41.471Z,6.2
2022-11-23T05:01:49.921Z,5.6
2022-11-23T05:02:58.250Z,5.6
2022-11-23T05:04:06.644Z,5.6
2022-11-23T05:05:15.160Z,6
2022-11-23T05:06:23.497Z,6
2022-11-23T05:07:31.862Z,6
2022-11-23T05:08:40.377Z,7
2022-11-23T05:09:48.754Z,7
2022-11-23T05:10:57.044Z,7
2022-11-23T05:12:05.602Z,18
2022-11-23T05:13:13.958Z,18
2022-11-23T05:14:22.313Z,18
2022-11-23T05:15:30.845Z,11.4
2022-11-23T05:16:39.201Z,11.4
2022-11-23T05:17:47.536Z,11.4
2022-11-23T05:18:56.062Z,6.8
2022-11-23T05:20:04.422Z,6.8
2022-11-23T05:21:12.751Z,6.8
2022-11-23T05:22:21.306Z,6.2
2022-11-23T05:23:29.654Z,6.2
2022-11-23T05:24:37.987Z,6.2
2022-11-23T05:25:46.556Z,6.4
2022-11-23T05:26:56.400Z,6.4
2022-11-23T05:28:11.299Z,6.4
2022-11-23T05:29:11.764Z,6.3
2022-11-23T05:30:20.111Z,6.3
2022-11-23T05:31:28.458Z,6.3
2022-11-23T05:32:37.024Z,5.5
2022-11-23T05:33:45.402Z,5.5
2022-11-23T05:34:53.710Z,5.5
2022-11-23T05:36:02.259Z,5.9
2022-11-23T05:37:10.599Z,5.9
2022-11-23T05:38:18.947Z,5.9
2022-11-23T05:39:27.482Z,6.2
2022-11-23T05:40:35.893Z,6.2
2022-11-23T05:41:44.203Z,6.2
2022-11-23T05:42:52.721Z,6.9
2022-11-23T05:44:01.046Z,6.9
2022-11-23T05:45:11.614Z,6.9
2022-11-23T05:46:17.942Z,7.2
2022-11-23T05:47:26.304Z,7.2
2022-11-23T05:48:34.686Z,7.2
2022-11-23T05:49:43.209Z,7.1
2022-11-23T05:50:51.533Z,7.1
2022-11-23T05:51:59.931Z,7.1
2022-11-23T05:53:08.447Z,6.4
2022-11-23T05:54:16.783Z,6.4
2022-11-23T05:55:25.149Z,6.4
2022-11-23T05:56:37.218Z,6
2022-11-23T05:57:42.058Z,6
2022-11-23T05:58:50.368Z,6
2022-11-23T05:59:58.901Z,6
2022-11-23T06:01:07.238Z,6
2022-11-23T06:02:15.574Z,6
2022-11-23T06:03:24.112Z,5.4
2022-11-23T06:04:32.437Z,5.4
2022-11-23T06:05:40.800Z,5.4
2022-11-23T06:06:49.345Z,5.8
2022-11-23T06:07:57.679Z,5.8
2022-11-23T06:09:06.020Z,5.8
2022-11-23T06:10:14.555Z,6.2
2022-11-23T06:11:22.910Z,6.2
2022-11-23T06:12:31.255Z,6.2
2022-11-23T06:13:39.865Z,5.8
2022-11-23T06:14:48.193Z,5.8
2022-11-23T06:15:56.555Z,5.8
2022-11-23T06:17:05.112Z,6.1
2022-11-23T06:18:13.439Z,6.1
2022-11-23T06:19:21.781Z,6.1
2022-11-23T06:20:30.319Z,5.8
2022-11-23T06:21:38.676Z,5.8
2022-11-23T06:22:47.015Z,5.8
2022-11-23T06:23:55.547Z,5.7
2022-11-23T06:25:03.889Z,5.7
2022-11-23T06:26:12.249Z,5.7
2022-11-23T06:27:20.784Z,6
2022-11-23T06:28:29.122Z,6
2022-11-23T06:29:37.475Z,6
2022-11-23T06:30:45.994Z,5.7
2022-11-23T06:31:54.340Z,5.7
2022-11-23T06:33:02.669Z,5.7
2022-11-23T06:34:11.231Z,5.7
2022-11-23T06:35:19.588Z,5.7
2022-11-23T06:36:27.910Z,5.7
2022-11-23T06:37:36.477Z,5.4
2022-11-23T06:38:44.804Z,5.4
2022-11-23T06:39:53.128Z,5.4
2022-11-23T06:41:01.701Z,5.4
2022-11-23T06:42:36.954Z,5.4
2022-11-23T06:43:18.376Z,5.4
2022-11-23T06:44:26.913Z,5.4
2022-11-23T06:45:35.297Z,5.4
2022-11-23T06:46:43.604Z,5.4
2022-11-23T06:47:52.164Z,5.6
2022-11-23T06:49:00.509Z,5.6
2022-11-23T06:50:08.854Z,5.6
2022-11-23T06:51:17.391Z,5.5
2022-11-23T06:52:25.727Z,5.5
2022-11-23T06:53:34.076Z,5.5
2022-11-23T06:54:42.606Z,5.5
2022-11-23T06:55:50.944Z,5.5
2022-11-23T06:56:59.308Z,5.5
2022-11-23T06:58:07.838Z,5.4
2022-11-23T06:59:16.177Z,5.4
2022-11-23T07:00:24.506Z,5.4
2022-11-23T07:01:33.147Z,4.9
2022-11-23T07:02:41.409Z,4.9
2022-11-23T07:03:49.754Z,4.9
2022-11-23T07:04:58.286Z,5.5
2022-11-23T07:06:06.617Z,5.5
2022-11-23T07:07:15.050Z,5.5
2022-11-23T07:08:23.554Z,5.3
2022-11-23T07:09:32.245Z,5.3
2022-11-23T07:10:40.233Z,5.3
2022-11-23T07:11:48.768Z,5.7
2022-11-23T07:12:57.110Z,5.7
2022-11-23T07:14:05.469Z,5.7
2022-11-23T07:15:13.999Z,9
2022-11-23T07:16:22.339Z,9
2022-11-23T07:17:30.698Z,9
2022-11-23T07:18:39.230Z,5.8
2022-11-23T07:19:47.554Z,5.8
2022-11-23T07:20:55.898Z,5.8
2022-11-23T07:22:04.451Z,5.3
2022-11-23T07:23:12.788Z,5.3
2022-11-23T07:24:21.125Z,5.3
2022-11-23T07:25:29.648Z,6
2022-11-23T07:26:38.000Z,6
2022-11-23T07:27:46.351Z,6
2022-11-23T07:28:54.894Z,5.6
2022-11-23T07:30:03.259Z,5.6
2022-11-23T07:31:11.589Z,5.6
2022-11-23T07:32:20.144Z,7.6
2022-11-23T07:33:28.504Z,7.6
2022-11-23T07:34:36.811Z,7.6
2022-11-23T07:35:45.366Z,7.9
2022-11-23T07:36:55.848Z,7.9
2022-11-23T07:38:02.068Z,7.9
2022-11-23T07:39:10.609Z,5.8
2022-11-23T07:40:18.956Z,5.8
2022-11-23T07:41:27.291Z,5.8
2022-11-23T07:42:41.348Z,7.3
2022-11-23T07:43:44.162Z,7.3
2022-11-23T07:44:52.491Z,7.3
2022-11-23T07:46:01.048Z,13.1
2022-11-23T07:47:09.384Z,13.1
2022-11-23T07:48:17.752Z,13.1
2022-11-23T07:49:26.353Z,7.1
2022-11-23T07:50:34.674Z,7.1
2022-11-23T07:51:43.019Z,7.1
2022-11-23T07:52:51.596Z,8
2022-11-23T07:53:59.922Z,8
2022-11-23T07:55:08.265Z,8
2022-11-23T07:56:16.839Z,6.8
2022-11-23T07:57:25.171Z,6.8
2022-11-23T07:58:33.528Z,6.8
2022-11-23T07:59:42.080Z,7.1
2022-11-23T08:00:50.412Z,7.1
2022-11-23T08:01:58.803Z,7.1
2022-11-23T08:04:15.701Z,5.8
2022-11-23T08:05:24.077Z,5.8
2022-11-23T08:06:32.602Z,6.9
2022-11-23T08:07:41.039Z,6.9
2022-11-23T08:08:49.282Z,6.9
2022-11-23T08:09:57.844Z,6.5
2022-11-23T08:11:06.178Z,6.5
2022-11-23T08:12:14.552Z,6.5
2022-11-23T08:13:23.110Z,6.6
2022-11-23T08:14:31.732Z,6.6
2022-11-23T08:15:39.810Z,6.6
2022-11-23T08:16:48.333Z,7.9
2022-11-23T08:17:56.696Z,7.9
2022-11-23T08:19:05.051Z,7.9
2022-11-23T08:20:13.589Z,7.2
2022-11-23T08:21:21.943Z,7.2
2022-11-23T08:22:30.284Z,7.2
2022-11-23T08:23:38.825Z,8
2022-11-23T08:24:47.210Z,8
2022-11-23T08:25:55.547Z,8
2022-11-23T08:27:04.114Z,7.1
2022-11-23T08:28:12.448Z,7.1
2022-11-23T08:29:20.793Z,7.1
2022-11-23T08:30:29.348Z,7.8
2022-11-23T08:31:37.677Z,7.8
2022-11-23T08:32:46.022Z,7.8
2022-11-23T08:33:57.653Z,7.3
2022-11-23T08:35:02.917Z,7.3
2022-11-23T08:36:11.261Z,7.3
2022-11-23T08:37:19.826Z,6.4
2022-11-23T08:38:28.126Z,6.4
2022-11-23T08:39:36.466Z,6.4
2022-11-23T08:40:44.995Z,6.8
2022-11-23T08:41:53.842Z,6.8
2022-11-23T08:43:02.175Z,6.8
2022-11-23T08:44:10.713Z,10.9
2022-11-23T08:45:19.033Z,10.9
2022-11-23T08:46:27.363Z,10.9
2022-11-23T08:47:35.907Z,6.3
2022-11-23T08:48:44.243Z,6.3
2022-11-23T08:49:52.585Z,6.3
2022-11-23T08:51:01.132Z,30.299999
2022-11-23T08:52:09.477Z,30.299999
2022-11-23T08:53:17.831Z,30.299999
2022-11-23T08:54:26.345Z,19.1
2022-11-23T08:55:34.668Z,19.1
2022-11-23T08:56:43.011Z,19.1
2022-11-23T08:57:51.558Z,5.5
2022-11-23T08:58:59.879Z,5.5
2022-11-23T09:00:08.210Z,5.5
2022-11-23T09:01:16.790Z,22.4
2022-11-23T09:02:25.086Z,22.4
2022-11-23T09:03:33.432Z,22.4
2022-11-23T09:04:41.956Z,10.6
2022-11-23T09:05:50.320Z,10.6
2022-11-23T09:06:58.684Z,10.6
2022-11-23T09:08:07.208Z,65.900002
2022-11-23T09:09:15.591Z,65.900002
2022-11-23T09:10:23.986Z,65.900002
2022-11-23T09:11:32.424Z,16.5
2022-11-23T09:12:40.782Z,16.5
2022-11-23T09:13:49.094Z,16.5
2022-11-23T09:14:57.636Z,9.4
2022-11-23T09:16:05.966Z,9.4
2022-11-23T09:17:14.297Z,9.4
2022-11-23T09:18:22.840Z,31
2022-11-23T09:19:31.173Z,31
2022-11-23T09:20:39.506Z,31
2022-11-23T09:21:48.057Z,12
2022-11-23T09:22:56.392Z,12
2022-11-23T09:24:04.724Z,12
2022-11-23T09:25:13.284Z,14.4
2022-11-23T09:26:21.589Z,14.4
2022-11-23T09:27:29.931Z,14.4
2022-11-23T09:28:43.178Z,5.2
2022-11-23T09:29:46.806Z,5.2
2022-11-23T09:30:55.136Z,5.2
2022-11-23T09:32:03.680Z,8.2
2022-11-23T09:33:12.012Z,8.2
2022-11-23T09:34:20.356Z,8.2
2022-11-23T09:35:28.904Z,5.2
2022-11-23T09:36:37.252Z,5.2
2022-11-23T09:37:45.613Z,5.2
2022-11-23T09:38:56.911Z,4.8
2022-11-23T09:40:02.545Z,4.8
2022-11-23T09:41:10.907Z,4.8
2022-11-23T09:42:19.451Z,5.6
2022-11-23T09:43:27.765Z,5.6
2022-11-23T09:44:36.095Z,5.6
2022-11-23T09:45:44.642Z,60.400002
2022-11-23T09:46:53.004Z,60.400002
2022-11-23T09:48:01.305Z,60.400002
2022-11-23T09:49:09.841Z,16.799999
2022-11-23T09:50:18.180Z,16.799999
2022-11-23T09:51:26.505Z,16.799999
2022-11-23T09:52:35.051Z,13.2
2022-11-23T09:53:43.381Z,13.2
2022-11-23T09:54:51.697Z,13.2
2022-11-23T09:56:00.235Z,7.9
2022-11-23T09:57:08.602Z,7.9
2022-11-23T09:58:16.911Z,7.9
2022-11-23T09:59:25.434Z,4.6
2022-11-23T10:00:33.763Z,4.6
2022-11-23T10:01:42.131Z,4.6
2022-11-23T10:02:50.635Z,19.4
2022-11-23T10:03:58.968Z,19.4
2022-11-23T10:05:07.287Z,19.4
2022-11-23T10:06:15.827Z,7.5
2022-11-23T10:07:24.264Z,7.5
2022-11-23T10:08:32.491Z,7.5
2022-11-23T10:09:41.030Z,5.1
2022-11-23T10:10:49.361Z,5.1
2022-11-23T10:11:57.692Z,5.1
2022-11-23T10:13:06.318Z,7.6
2022-11-23T10:14:14.604Z,7.6
2022-11-23T10:15:22.948Z,7.6
2022-11-23T10:16:31.493Z,17.1
2022-11-23T10:17:39.830Z,17.1
2022-11-23T10:18:48.183Z,17.1
2022-11-23T10:19:56.710Z,8.4
2022-11-23T10:21:05.058Z,8.4
2022-11-23T10:22:13.402Z,8.4
2022-11-23T10:23:21.943Z,11.5
2022-11-23T10:24:30.573Z,11.5
2022-11-23T10:25:39.354Z,11.5
2022-11-23T10:26:47.135Z,18.1
2022-11-23T10:27:55.475Z,18.1
2022-11-23T10:29:03.822Z,18.1
2022-11-23T10:30:12.343Z,4
2022-11-23T10:31:20.673Z,4
2022-11-23T10:32:29.012Z,4
2022-11-23T10:33:37.547Z,10.2
2022-11-23T10:34:45.880Z,10.2
2022-11-23T10:35:54.204Z,10.2
2022-11-23T10:37:02.759Z,10.9
2022-11-23T10:38:15.172Z,10.9
2022-11-23T10:39:19.407Z,10.9
2022-11-23T10:40:27.949Z,25.4
2022-11-23T10:41:36.315Z,25.4
2022-11-23T10:42:44.626Z,25.4
2022-11-23T10:43:53.166Z,18.700001
2022-11-23T10:45:01.520Z,18.700001
2022-11-23T10:46:09.818Z,18.700001
2022-11-23T10:47:18.387Z,334.89999
2022-11-23T10:48:26.745Z,334.89999
2022-11-23T10:49:35.071Z,334.89999
2022-11-23T10:50:43.609Z,11.1
2022-11-23T10:51:51.977Z,11.1
2022-11-23T10:53:00.301Z,11.1
2022-11-23T10:54:08.825Z,8.3
2022-11-23T10:55:17.174Z,8.3
2022-11-23T10:56:25.498Z,8.3
2022-11-23T10:57:34.056Z,9.5
2022-11-23T10:58:42.395Z,9.5
2022-11-23T10:59:50.712Z,9.5
2022-11-23T11:00:59.274Z,4.4
2022-11-23T11:02:07.640Z,4.4
2022-11-23T11:03:15.920Z,4.4
2022-11-23T11:04:24.509Z,7.8
2022-11-23T11:06:44.073Z,7.8
2022-11-23T11:07:52.657Z,8.7
2022-11-23T11:09:03.374Z,8.7
2022-11-23T11:10:09.263Z,8.7
2022-11-23T11:11:17.848Z,4.3
2022-11-23T11:12:26.183Z,4.3
2022-11-23T11:13:34.517Z,4.3
2022-11-23T11:14:43.540Z,4
2022-11-23T11:15:51.377Z,4
2022-11-23T11:16:59.756Z,4
2022-11-23T11:18:08.273Z,3.9
2022-11-23T11:19:16.597Z,3.9
2022-11-23T11:20:24.928Z,3.9
2022-11-23T11:21:33.478Z,3.5
2022-11-23T11:22:46.308Z,3.5
2022-11-23T11:23:50.157Z,3.5
2022-11-23T11:24:58.718Z,3.3
2022-11-23T11:26:07.044Z,3.3
2022-11-23T11:27:15.384Z,3.3
2022-11-23T11:28:23.925Z,3.1
2022-11-23T11:29:38.248Z,3.1
2022-11-23T11:30:40.668Z,3.1
2022-11-23T11:31:49.125Z,5
2022-11-23T11:32:57.474Z,5
2022-11-23T11:34:05.784Z,5
2022-11-23T11:35:19.198Z,4.6
2022-11-23T11:36:22.648Z,4.6
2022-11-23T11:37:30.991Z,4.6
2022-11-23T11:38:39.527Z,7.3
2022-11-23T11:39:47.885Z,7.3
2022-11-23T11:40:56.222Z,7.3
2022-11-23T11:42:04.754Z,6.5
2022-11-23T11:43:13.090Z,6.5
2022-11-23T11:44:21.425Z,6.5
2022-11-23T11:45:29.966Z,4.7
2022-11-23T11:46:38.305Z,4.7
2022-11-23T11:47:46.633Z,4.7
2022-11-23T11:48:55.195Z,6.4
2022-11-23T11:50:03.493Z,6.4
2022-11-23T11:51:11.826Z,6.4
2022-11-23T11:52:20.380Z,2.4
2022-11-23T11:53:28.699Z,2.4
2022-11-23T11:54:37.343Z,2.4
2022-11-23T11:55:45.603Z,3.2
2022-11-23T11:56:53.933Z,3.2
2022-11-23T11:58:02.263Z,3.2
2022-11-23T11:59:10.804Z,4.4
2022-11-23T12:00:19.129Z,4.4
2022-11-23T12:01:27.463Z,4.4
2022-11-23T12:02:36.076Z,3.4
2022-11-23T12:03:44.365Z,3.4
2022-11-23T12:04:52.729Z,3.4
2022-11-23T12:06:01.250Z,2
2022-11-23T12:07:09.700Z,2
2022-11-23T12:08:17.920Z,2
2022-11-23T12:09:26.457Z,2.1
2022-11-23T12:10:34.792Z,2.1
2022-11-23T12:11:43.135Z,2.1
2022-11-23T12:12:51.679Z,2.2
2022-11-23T12:14:00.016Z,2.2
2022-11-23T12:15:26.528Z,2.2
2022-11-23T12:16:16.881Z,2.2
2022-11-23T12:17:32.669Z,2.2
2022-11-23T12:18:33.547Z,2.2
2022-11-23T12:19:42.082Z,2.3
2022-11-23T12:20:50.440Z,2.3
2022-11-23T12:21:58.781Z,2.3
2022-11-23T12:23:07.292Z,2.4
2022-11-23T12:24:15.641Z,2.4
2022-11-23T12:25:23.947Z,2.4
2022-11-23T12:26:32.491Z,2.2
2022-11-23T12:27:45.092Z,2.2
2022-11-23T12:28:49.185Z,2.2
2022-11-23T12:29:57.727Z,3.2
2022-11-23T12:31:06.048Z,3.2
2022-11-23T12:32:14.391Z,3.2
2022-11-23T12:33:22.962Z,3.1
2022-11-23T12:34:31.565Z,3.1
2022-11-23T12:35:39.631Z,3.1
2022-11-23T12:36:48.207Z,2.5
2022-11-23T12:37:56.527Z,2.5
2022-11-23T12:39:04.846Z,2.5
2022-11-23T12:40:13.384Z,2.6
2022-11-23T12:41:21.720Z,2.6
2022-11-23T12:42:30.039Z,2.6
2022-11-23T12:43:38.584Z,2.9
2022-11-23T12:44:46.930Z,2.9
2022-11-23T12:45:55.244Z,2.9
2022-11-23T12:47:03.825Z,2.5
2022-11-23T12:48:12.147Z,2.5
2022-11-23T12:49:20.509Z,2.5
2022-11-23T12:50:29.026Z,2.7
2022-11-23T12:51:37.384Z,2.7
2022-11-23T12:52:45.766Z,2.7
2022-11-23T12:53:54.309Z,2.9
2022-11-23T12:55:03.388Z,2.9
2022-11-23T12:56:11.774Z,2.9
2022-11-23T12:57:20.355Z,2.7
2022-11-23T12:58:28.671Z,2.7
2022-11-23T12:59:37.011Z,2.7
2022-11-23T13:00:45.894Z,2.8
2022-11-23T13:01:54.386Z,2.8
2022-11-23T13:03:02.591Z,2.8
2022-11-23T13:04:11.167Z,3.2
2022-11-23T13:05:19.502Z,3.2
2022-11-23T13:06:27.875Z,3.2
2022-11-23T13:07:43.443Z,3
2022-11-23T13:08:44.855Z,3
2022-11-23T13:09:53.157Z,3
2022-11-23T13:11:01.723Z,3.4
2022-11-23T13:12:10.092Z,3.4
2022-11-23T13:13:18.430Z,3.4
2022-11-23T13:14:26.976Z,3
2022-11-23T13:15:35.385Z,3
2022-11-23T13:16:43.811Z,3
2022-11-23T13:17:52.217Z,2.9
2022-11-23T13:19:04.593Z,2.9
2022-11-23T13:20:09.015Z,2.9
2022-11-23T13:21:17.487Z,2.9
2022-11-23T13:22:25.869Z,2.9
2022-11-23T13:23:34.248Z,2.9
2022-11-23T13:24:42.841Z,3.5
2022-11-23T13:25:51.147Z,3.5
2022-11-23T13:26:59.512Z,3.5
2022-11-23T13:28:08.059Z,3.1
2022-11-23T13:29:16.409Z,3.1
2022-11-23T13:30:24.760Z,3.1
2022-11-23T13:31:33.437Z,3.4
2022-11-23T13:32:41.758Z,3.4
2022-11-23T13:33:50.111Z,3.4
2022-11-23T13:34:58.685Z,2.8
2022-11-23T13:36:11.317Z,2.8
2022-11-23T13:37:15.360Z,2.8
2022-11-23T13:38:23.909Z,3.2
2022-11-23T13:39:32.367Z,3.2
2022-11-23T13:40:40.645Z,3.2
2022-11-23T13:41:49.190Z,2.7
2022-11-23T13:42:57.539Z,2.7
2022-11-23T13:44:05.933Z,2.7
2022-11-23T13:45:14.484Z,2.9
2022-11-23T13:46:22.858Z,2.9
2022-11-23T13:47:31.160Z,2.9
2022-11-23T13:48:55.909Z,3.1
2022-11-23T13:49:48.051Z,3.1
2022-11-23T13:50:56.399Z,3.1
2022-11-23T13:52:04.964Z,3.2
2022-11-23T13:53:13.344Z,3.2
2022-11-23T13:54:21.701Z,3.2
2022-11-23T13:55:30.252Z,3.7
2022-11-23T13:56:38.669Z,3.7
2022-11-23T13:57:47.002Z,3.7
2022-11-23T13:58:55.526Z,3.2
2022-11-23T14:00:03.904Z,3.2
2022-11-23T14:01:12.282Z,3.2
2022-11-23T14:02:20.849Z,3.1
2022-11-23T14:03:29.162Z,3.1
2022-11-23T14:04:37.523Z,3.1
2022-11-23T14:05:46.061Z,3.6
2022-11-23T14:06:54.416Z,3.6
2022-11-23T14:08:02.758Z,3.6
2022-11-23T14:09:11.301Z,2.8
2022-11-23T14:10:19.636Z,2.8
2022-11-23T14:11:28.018Z,2.8
2022-11-23T14:12:36.632Z,2.9
2022-11-23T14:13:44.957Z,2.9
2022-11-23T14:14:53.296Z,2.9
2022-11-23T14:16:01.924Z,2.9
2022-11-23T14:17:10.216Z,2.9
2022-11-23T14:18:18.587Z,2.9
2022-11-23T14:19:27.159Z,2.6
2022-11-23T14:20:35.495Z,2.6
2022-11-23T14:21:43.865Z,2.6
2022-11-23T14:22:52.416Z,2.8
2022-11-23T14:24:00.757Z,2.8
2022-11-23T14:25:09.091Z,2.8
2022-11-23T14:26:17.696Z,3.1
2022-11-23T14:27:46.040Z,3.1
2022-11-23T14:28:34.368Z,3.1
2022-11-23T14:29:42.885Z,3.3
2022-11-23T15:03:21.057Z,0
2022-11-23T15:04:12.981Z,0
2022-11-23T15:05:21.319Z,0
2022-11-23T15:06:29.837Z,2.8
2022-11-23T15:07:38.239Z,2.8
2022-11-23T15:08:46.544Z,2.8
2022-11-23T15:09:55.098Z,3.2
2022-11-23T15:11:03.452Z,3.2
2022-11-23T15:12:11.832Z,3.2
2022-11-23T15:13:20.381Z,3.2
2022-11-23T15:14:28.756Z,3.2
2022-11-23T15:15:37.114Z,3.2
2022-11-23T15:16:45.684Z,6.1
2022-11-23T15:17:54.003Z,6.1
2022-11-23T15:19:02.376Z,6.1
2022-11-23T15:20:10.878Z,5.9
2022-11-23T15:21:22.689Z,5.9
2022-11-23T15:22:27.612Z,5.9
2022-11-23T15:23:36.155Z,7.6
2022-11-23T15:24:44.509Z,7.6
2022-11-23T15:25:52.877Z,7.6
2022-11-23T15:27:01.425Z,6.3
2022-11-23T15:28:09.766Z,6.3
2022-11-23T15:29:18.121Z,6.3
2022-11-23T15:30:27.167Z,8.1
2022-11-23T15:31:35.050Z,8.1
2022-11-23T15:32:43.362Z,8.1
2022-11-23T15:33:51.892Z,6.7
2022-11-23T15:35:00.274Z,6.7
2022-11-23T15:36:08.591Z,6.7
2022-11-23T15:37:17.144Z,4.2
2022-11-23T15:38:25.512Z,4.2
2022-11-23T15:39:34.142Z,4.2
2022-11-23T15:40:42.383Z,3.4
2022-11-23T15:41:50.722Z,3.4
2022-11-23T15:42:59.061Z,3.4
2022-11-23T15:44:07.627Z,3.5
2022-11-23T15:45:15.959Z,3.5
2022-11-23T15:46:24.341Z,3.5
2022-11-23T15:47:32.867Z,3.5
2022-11-23T15:48:41.201Z,3.5
2022-11-23T15:49:49.616Z,3.5
2022-11-23T15:50:58.165Z,3.7
2022-11-23T15:52:06.470Z,3.7
2022-11-23T15:53:14.835Z,3.7
2022-11-23T15:54:23.405Z,3.4
2022-11-23T15:55:31.754Z,3.4
2022-11-23T15:56:40.091Z,3.4
2022-11-23T15:57:48.647Z,4.1
2022-11-23T15:58:56.978Z,4.1
2022-11-23T16:00:05.345Z,4.1
2022-11-23T16:01:13.950Z,3.8
2022-11-23T16:02:22.346Z,3.8
2022-11-23T16:03:30.610Z,3.8
2022-11-23T16:04:39.174Z,4.1
2022-11-23T16:05:47.520Z,4.1
2022-11-23T16:06:55.887Z,4.1
2022-11-23T16:08:04.489Z,3.9
2022-11-23T16:09:28.356Z,3.9
2022-11-23T16:10:21.151Z,3.9
2022-11-23T16:11:29.709Z,5.4
2022-11-23T16:12:38.072Z,5.4
2022-11-23T16:13:46.391Z,5.4
2022-11-23T16:14:54.992Z,6.7
2022-11-23T16:16:03.299Z,6.7
2022-11-23T16:17:11.678Z,6.7